createdAt,value
2018-04-17T00:00:39.116Z,6.51
2018-04-17T00:01:38.986Z,6.59
2018-04-17T00:02:38.860Z,6.56
2018-04-17T00:03:38.734Z,6.59
2018-04-17T00:04:38.605Z,6.51
2018-04-17T00:05:38.478Z,6.51
2018-04-17T00:06:38.354Z,6.48
2018-04-17T00:07:38.226Z,6.47
2018-04-17T00:08:38.103Z,6.50
2018-04-17T00:09:37.977Z,6.50
2018-04-17T00:10:37.848Z,6.53
2018-04-17T00:11:37.721Z,6.59
2018-04-17T00:12:37.596Z,6.61
2018-04-17T00:13:37.482Z,6.59
2018-04-17T00:14:37.342Z,6.65
2018-04-17T00:15:37.216Z,6.66
2018-04-17T00:16:37.089Z,6.66
2018-04-17T00:17:36.959Z,6.77
2018-04-17T00:18:36.834Z,6.65
2018-04-17T00:19:36.707Z,6.72
2018-04-17T00:20:36.580Z,6.76
2018-04-17T00:21:36.457Z,6.76
2018-04-17T00:22:36.329Z,6.81
2018-04-17T00:23:36.203Z,6.76
2018-04-17T00:24:36.076Z,6.80
2018-04-17T00:25:35.948Z,6.91
2018-04-17T00:26:35.822Z,6.76
2018-04-17T00:27:35.696Z,6.80
2018-04-17T00:28:35.576Z,6.90
2018-04-17T00:29:35.444Z,6.90
2018-04-17T00:30:35.315Z,6.99
2018-04-17T00:31:35.190Z,6.90
2018-04-17T00:32:35.065Z,6.99
2018-04-17T00:33:34.937Z,6.98
2018-04-17T00:34:34.811Z,6.95
2018-04-17T00:35:34.687Z,6.94
2018-04-17T00:36:34.561Z,7.01
2018-04-17T00:37:34.433Z,6.94
2018-04-17T00:38:34.312Z,7.04
2018-04-17T00:39:34.179Z,7.01
2018-04-17T00:40:34.053Z,7.01
2018-04-17T00:41:33.928Z,6.95
2018-04-17T00:42:33.797Z,6.97
2018-04-17T00:43:33.677Z,6.80
2018-04-17T00:44:33.547Z,6.76
2018-04-17T00:45:33.421Z,6.69
2018-04-17T00:46:33.301Z,6.72
2018-04-17T00:47:33.170Z,6.61
2018-04-17T00:48:33.043Z,6.58
2018-04-17T00:49:32.917Z,6.63
2018-04-17T00:50:32.794Z,6.63
2018-04-17T00:51:32.667Z,6.61
2018-04-17T00:52:32.539Z,6.59
2018-04-17T00:53:32.413Z,6.51
2018-04-17T00:54:32.294Z,6.53
2018-04-17T00:55:32.160Z,6.46
2018-04-17T00:56:32.032Z,6.43
2018-04-17T00:57:31.906Z,6.50
2018-04-17T00:58:31.792Z,6.40
2018-04-17T00:59:31.662Z,6.35
2018-04-17T01:00:31.526Z,6.51
2018-04-17T01:01:31.404Z,6.46
2018-04-17T01:02:31.278Z,6.51
2018-04-17T01:03:31.148Z,6.51
2018-04-17T01:04:31.024Z,6.44
2018-04-17T01:05:30.896Z,6.54
2018-04-17T01:06:30.804Z,6.50
2018-04-17T01:07:30.643Z,6.58
2018-04-17T01:08:30.513Z,6.66
2018-04-17T01:09:30.388Z,6.61
2018-04-17T01:10:30.259Z,6.65
2018-04-17T01:11:30.181Z,6.63
2018-04-17T01:12:30.006Z,6.65
2018-04-17T01:13:29.883Z,6.71
2018-04-17T01:14:29.757Z,6.71
2018-04-17T01:15:29.633Z,6.79
2018-04-17T01:16:29.500Z,6.77
2018-04-17T01:17:29.378Z,6.76
2018-04-17T01:18:29.249Z,6.84
2018-04-17T01:19:29.126Z,6.90
2018-04-17T01:20:28.999Z,6.73
2018-04-17T01:21:28.871Z,6.69
2018-04-17T01:22:28.745Z,6.77
2018-04-17T01:23:28.616Z,6.66
2018-04-17T01:24:28.491Z,6.61
2018-04-17T01:25:28.362Z,6.61
2018-04-17T01:26:28.236Z,6.63
2018-04-17T01:27:28.110Z,6.50
2018-04-17T01:28:27.985Z,6.51
2018-04-17T01:29:27.859Z,6.58
2018-04-17T01:30:27.729Z,6.58
2018-04-17T01:31:27.606Z,6.61
2018-04-17T01:32:27.476Z,6.61
2018-04-17T01:33:27.350Z,6.68
2018-04-17T01:34:27.225Z,6.72
2018-04-17T01:35:27.098Z,6.73
2018-04-17T01:36:26.973Z,6.76
2018-04-17T01:37:26.847Z,6.72
2018-04-17T01:38:26.720Z,6.63
2018-04-17T01:39:26.593Z,6.62
2018-04-17T01:40:26.471Z,6.62
2018-04-17T01:41:26.340Z,6.53
2018-04-17T01:42:26.213Z,6.66
2018-04-17T01:43:26.086Z,6.61
2018-04-17T01:44:25.963Z,6.56
2018-04-17T01:45:25.833Z,6.51
2018-04-17T01:46:25.707Z,6.58
2018-04-17T01:47:25.631Z,6.56
2018-04-17T01:48:25.455Z,6.47
2018-04-17T01:49:25.328Z,6.54
2018-04-17T01:50:25.201Z,6.47
2018-04-17T01:51:25.073Z,6.50
2018-04-17T01:52:24.949Z,6.51
2018-04-17T01:53:24.824Z,6.36
2018-04-17T01:54:24.696Z,6.47
2018-04-17T01:55:24.570Z,6.54
2018-04-17T01:56:24.444Z,6.44
2018-04-17T01:57:24.316Z,6.50
2018-04-17T01:58:24.189Z,6.38
2018-04-17T01:59:24.065Z,6.36
2018-04-17T02:00:23.938Z,6.35
2018-04-17T02:01:23.813Z,6.33
2018-04-17T02:02:23.687Z,6.35
2018-04-17T02:03:23.558Z,6.35
2018-04-17T02:04:23.429Z,6.43
2018-04-17T02:05:23.303Z,6.40
2018-04-17T02:06:23.181Z,6.48
2018-04-17T02:07:23.052Z,6.51
2018-04-17T02:08:22.924Z,6.53
2018-04-17T02:09:22.798Z,6.44
2018-04-17T02:10:22.673Z,6.35
2018-04-17T02:11:22.553Z,6.33
2018-04-17T02:12:22.417Z,6.36
2018-04-17T02:13:22.291Z,6.36
2018-04-17T02:14:22.165Z,6.40
2018-04-17T02:15:22.038Z,6.36
2018-04-17T02:16:21.910Z,6.35
2018-04-17T02:17:21.783Z,6.47
2018-04-17T02:18:21.657Z,6.48
2018-04-17T02:19:21.528Z,6.50
2018-04-17T02:20:21.402Z,6.40
2018-04-17T02:21:21.282Z,6.47
2018-04-17T02:22:21.150Z,6.38
2018-04-17T02:23:21.023Z,6.40
2018-04-17T02:24:20.897Z,6.46
2018-04-17T02:25:20.769Z,6.38
2018-04-17T02:26:20.642Z,6.38
2018-04-17T02:27:20.515Z,6.33
2018-04-17T02:28:20.389Z,6.30
2018-04-17T02:29:20.262Z,6.25
2018-04-17T02:30:20.139Z,6.22
2018-04-17T02:31:20.066Z,6.21
2018-04-17T02:32:19.881Z,6.13
2018-04-17T02:33:19.756Z,6.14
2018-04-17T02:34:19.634Z,6.13
2018-04-17T02:35:19.503Z,6.11
2018-04-17T02:36:19.375Z,6.16
2018-04-17T02:37:19.250Z,6.14
2018-04-17T02:38:19.122Z,6.07
2018-04-17T02:39:18.995Z,6.07
2018-04-17T02:40:18.867Z,6.07
2018-04-17T02:41:18.740Z,6.11
2018-04-17T02:42:18.612Z,6.14
2018-04-17T02:43:18.485Z,6.21
2018-04-17T02:44:18.358Z,6.18
2018-04-17T02:45:18.229Z,6.19
2018-04-17T02:46:18.104Z,6.13
2018-04-17T02:47:17.974Z,6.13
2018-04-17T02:48:17.847Z,6.13
2018-04-17T02:49:17.721Z,6.13
2018-04-17T02:50:17.591Z,6.13
2018-04-17T02:51:17.465Z,6.10
2018-04-17T02:52:17.339Z,6.16
2018-04-17T02:53:17.216Z,6.14
2018-04-17T02:54:17.089Z,6.07
2018-04-17T02:55:16.957Z,6.10
2018-04-17T02:56:16.828Z,6.10
2018-04-17T02:57:16.703Z,5.98
2018-04-17T02:58:16.579Z,6.00
2018-04-17T02:59:16.448Z,5.93
2018-04-17T03:00:16.322Z,6.00
2018-04-17T03:01:16.193Z,5.98
2018-04-17T03:02:16.065Z,6.04
2018-04-17T03:03:15.937Z,5.96
2018-04-17T03:04:15.811Z,5.91
2018-04-17T03:05:15.681Z,6.00
2018-04-17T03:06:15.555Z,6.01
2018-04-17T03:07:15.427Z,5.83
2018-04-17T03:08:15.302Z,5.81
2018-04-17T03:09:15.174Z,5.88
2018-04-17T03:10:15.047Z,5.92
2018-04-17T03:11:14.918Z,5.83
2018-04-17T03:12:14.795Z,5.89
2018-04-17T03:13:14.662Z,5.93
2018-04-17T03:14:14.537Z,5.81
2018-04-17T03:15:14.407Z,5.85
2018-04-17T03:16:14.278Z,5.91
2018-04-17T03:17:14.152Z,5.88
2018-04-17T03:18:14.025Z,6.00
2018-04-17T03:19:13.898Z,6.03
2018-04-17T03:20:13.769Z,5.92
2018-04-17T03:21:13.641Z,5.91
2018-04-17T03:22:13.512Z,5.89
2018-04-17T03:23:13.390Z,5.92
2018-04-17T03:24:13.262Z,5.92
2018-04-17T03:25:13.134Z,5.86
2018-04-17T03:26:13.006Z,5.89
2018-04-17T03:27:12.884Z,5.88
2018-04-17T03:28:12.751Z,5.85
2018-04-17T03:29:12.621Z,5.77
2018-04-17T03:30:12.495Z,5.70
2018-04-17T03:31:12.372Z,5.68
2018-04-17T03:32:12.245Z,5.66
2018-04-17T03:33:12.114Z,5.59
2018-04-17T03:34:11.988Z,5.59
2018-04-17T03:35:11.864Z,5.63
2018-04-17T03:36:11.730Z,5.57
2018-04-17T03:37:11.604Z,5.59
2018-04-17T03:38:11.476Z,5.59
2018-04-17T03:39:11.351Z,5.59
2018-04-17T03:40:11.221Z,5.63
2018-04-17T03:41:11.093Z,5.59
2018-04-17T03:42:10.967Z,5.56
2018-04-17T03:43:10.840Z,5.64
2018-04-17T03:44:10.712Z,5.59
2018-04-17T03:45:10.581Z,5.53
2018-04-17T03:46:10.456Z,5.49
2018-04-17T03:47:10.329Z,5.56
2018-04-17T03:48:10.199Z,5.52
2018-04-17T03:49:10.074Z,5.55
2018-04-17T03:50:09.946Z,5.53
2018-04-17T03:51:09.816Z,5.53
2018-04-17T03:52:09.693Z,5.48
2018-04-17T03:53:09.563Z,5.45
2018-04-17T03:54:09.434Z,5.43
2018-04-17T03:55:09.307Z,5.41
2018-04-17T03:56:09.176Z,5.41
2018-04-17T03:57:09.049Z,5.46
2018-04-17T03:58:08.924Z,5.45
2018-04-17T03:59:08.797Z,5.49
2018-04-17T04:00:08.666Z,5.38
2018-04-17T04:01:08.540Z,5.43
2018-04-17T04:02:08.410Z,5.48
2018-04-17T04:03:08.283Z,5.52
2018-04-17T04:04:08.157Z,5.55
2018-04-17T04:05:08.026Z,5.45
2018-04-17T04:06:07.901Z,5.50
2018-04-17T04:07:07.775Z,5.52
2018-04-17T04:08:07.644Z,5.46
2018-04-17T04:09:07.516Z,5.55
2018-04-17T04:10:07.388Z,5.49
2018-04-17T04:11:07.266Z,5.50
2018-04-17T04:12:07.136Z,5.48
2018-04-17T04:13:07.004Z,5.50
2018-04-17T04:14:06.876Z,5.38
2018-04-17T04:15:06.751Z,5.49
2018-04-17T04:16:06.623Z,5.53
2018-04-17T04:17:06.499Z,5.52
2018-04-17T04:18:06.365Z,5.49
2018-04-17T04:19:06.237Z,5.50
2018-04-17T04:20:06.250Z,5.50
2018-04-17T04:21:05.980Z,5.57
2018-04-17T04:22:05.853Z,5.55
2018-04-17T04:23:05.735Z,5.56
2018-04-17T04:24:05.600Z,5.63
2018-04-17T04:25:05.470Z,5.64
2018-04-17T04:26:05.345Z,5.71
2018-04-17T04:27:05.214Z,5.74
2018-04-17T04:28:05.088Z,5.68
2018-04-17T04:29:04.960Z,5.71
2018-04-17T04:30:04.833Z,5.73
2018-04-17T04:31:04.797Z,5.74
2018-04-17T04:32:04.574Z,5.70
2018-04-17T04:33:04.445Z,5.77
2018-04-17T04:34:04.320Z,5.81
2018-04-17T04:35:04.193Z,5.77
2018-04-17T04:36:04.065Z,5.77
2018-04-17T04:37:03.935Z,5.83
2018-04-17T04:38:03.809Z,5.86
2018-04-17T04:39:03.697Z,5.89
2018-04-17T04:40:03.553Z,5.86
2018-04-17T04:41:03.425Z,5.91
2018-04-17T04:42:03.299Z,5.88
2018-04-17T04:43:03.171Z,5.91
2018-04-17T04:44:03.085Z,5.89
2018-04-17T04:45:02.915Z,5.96
2018-04-17T04:46:02.789Z,5.98
2018-04-17T04:47:02.663Z,5.96
2018-04-17T04:48:02.539Z,6.01
2018-04-17T04:49:02.411Z,6.00
2018-04-17T04:50:02.279Z,6.00
2018-04-17T04:51:02.153Z,5.98
2018-04-17T04:52:02.044Z,6.00
2018-04-17T04:53:01.896Z,6.01
2018-04-17T04:54:01.772Z,6.04
2018-04-17T04:55:01.645Z,6.00
2018-04-17T04:56:01.516Z,5.98
2018-04-17T04:57:01.387Z,6.00
2018-04-17T04:58:01.264Z,5.95
2018-04-17T04:59:01.135Z,5.95
2018-04-17T05:00:01.005Z,6.01
2018-04-17T05:01:00.880Z,6.09
2018-04-17T05:02:00.756Z,6.13
2018-04-17T05:03:00.625Z,6.16
2018-04-17T05:04:00.497Z,6.13
2018-04-17T05:05:00.371Z,6.18
2018-04-17T05:06:00.242Z,6.13
2018-04-17T05:07:00.117Z,6.22
2018-04-17T05:07:59.988Z,6.25
2018-04-17T05:08:59.859Z,6.35
2018-04-17T05:09:59.734Z,6.33
2018-04-17T05:10:59.607Z,6.33
2018-04-17T05:11:59.480Z,6.36
2018-04-17T05:12:59.353Z,6.33
2018-04-17T05:13:59.226Z,6.41
2018-04-17T05:14:59.100Z,6.38
2018-04-17T05:15:58.971Z,6.44
2018-04-17T05:16:58.844Z,6.43
2018-04-17T05:17:58.718Z,6.47
2018-04-17T05:18:58.594Z,6.51
2018-04-17T05:19:58.465Z,6.50
2018-04-17T05:20:58.338Z,6.47
2018-04-17T05:21:58.211Z,6.48
2018-04-17T05:22:58.103Z,6.47
2018-04-17T05:23:57.965Z,6.53
2018-04-17T05:24:57.831Z,6.53
2018-04-17T05:25:57.705Z,6.59
2018-04-17T05:26:57.577Z,6.69
2018-04-17T05:27:57.450Z,6.63
2018-04-17T05:28:57.323Z,6.66
2018-04-17T05:29:57.199Z,6.68
2018-04-17T05:30:57.071Z,6.73
2018-04-17T05:31:56.943Z,6.77
2018-04-17T05:32:56.817Z,6.76
2018-04-17T05:33:56.692Z,6.79
2018-04-17T05:34:56.568Z,6.73
2018-04-17T05:35:56.439Z,6.76
2018-04-17T05:36:56.313Z,6.79
2018-04-17T05:37:56.189Z,6.91
2018-04-17T05:38:56.070Z,6.90
2018-04-17T05:39:55.932Z,6.95
2018-04-17T05:40:55.805Z,6.99
2018-04-17T05:41:55.680Z,7.01
2018-04-17T05:42:55.555Z,6.97
2018-04-17T05:43:55.427Z,6.98
2018-04-17T05:44:55.298Z,6.98
2018-04-17T05:45:55.179Z,6.94
2018-04-17T05:46:55.050Z,6.91
2018-04-17T05:47:54.920Z,6.99
2018-04-17T05:48:54.793Z,6.99
2018-04-17T05:49:54.669Z,7.05
2018-04-17T05:50:54.540Z,7.07
2018-04-17T05:51:54.413Z,7.08
2018-04-17T05:52:54.291Z,7.04
2018-04-17T05:53:54.159Z,7.08
2018-04-17T05:54:54.033Z,7.08
2018-04-17T05:55:53.954Z,7.09
2018-04-17T05:56:53.780Z,7.12
2018-04-17T05:57:53.655Z,7.12
2018-04-17T05:58:53.526Z,7.08
2018-04-17T05:59:53.401Z,7.13
2018-04-17T06:00:53.274Z,7.13
2018-04-17T06:01:53.147Z,7.19
2018-04-17T06:02:53.022Z,7.24
2018-04-17T06:03:52.896Z,7.24
2018-04-17T06:04:52.777Z,7.29
2018-04-17T06:05:52.644Z,7.29
2018-04-17T06:06:52.517Z,7.23
2018-04-17T06:07:52.389Z,7.34
2018-04-17T06:08:52.264Z,7.37
2018-04-17T06:09:52.140Z,7.32
2018-04-17T06:10:52.010Z,7.52
2018-04-17T06:11:51.889Z,7.45
2018-04-17T06:12:51.761Z,7.60
2018-04-17T06:13:51.631Z,7.66
2018-04-17T06:14:51.508Z,7.59
2018-04-17T06:15:51.394Z,7.74
2018-04-17T06:16:51.256Z,7.75
2018-04-17T06:17:51.142Z,7.78
2018-04-17T06:18:50.998Z,7.75
2018-04-17T06:19:50.874Z,7.77
2018-04-17T06:20:50.747Z,7.72
2018-04-17T06:21:50.624Z,7.66
2018-04-17T06:22:50.502Z,7.81
2018-04-17T06:23:50.369Z,7.74
2018-04-17T06:24:50.245Z,7.63
2018-04-17T06:25:50.126Z,7.60
2018-04-17T06:26:49.994Z,7.60
2018-04-17T06:27:49.866Z,7.56
2018-04-17T06:28:49.740Z,7.67
2018-04-17T06:29:49.613Z,7.67
2018-04-17T06:30:49.487Z,7.69
2018-04-17T06:31:49.361Z,7.72
2018-04-17T06:32:49.234Z,7.79
2018-04-17T06:33:49.108Z,7.75
2018-04-17T06:34:48.982Z,7.77
2018-04-17T06:35:48.862Z,7.81
2018-04-17T06:36:48.733Z,7.81
2018-04-17T06:37:48.604Z,7.85
2018-04-17T06:38:48.479Z,7.89
2018-04-17T06:39:48.350Z,7.92
2018-04-17T06:40:48.225Z,7.82
2018-04-17T06:41:48.176Z,7.85
2018-04-17T06:42:47.973Z,7.89
2018-04-17T06:43:47.846Z,7.92
2018-04-17T06:44:47.722Z,7.93
2018-04-17T06:45:47.596Z,8.07
2018-04-17T06:46:47.469Z,8.03
2018-04-17T06:47:47.345Z,8.15
2018-04-17T06:48:47.219Z,8.15
2018-04-17T06:49:47.091Z,8.15
2018-04-17T06:50:46.967Z,8.17
2018-04-17T06:51:46.845Z,8.18
2018-04-17T06:52:46.762Z,8.22
2018-04-17T06:53:46.592Z,8.10
2018-04-17T06:54:46.467Z,8.11
2018-04-17T06:55:46.337Z,8.14
2018-04-17T06:56:46.213Z,8.18
2018-04-17T06:57:46.088Z,8.10
2018-04-17T06:58:45.971Z,8.15
2018-04-17T06:59:45.838Z,7.90
2018-04-17T07:00:45.711Z,7.99
2018-04-17T07:01:45.587Z,7.94
2018-04-17T07:02:45.463Z,7.94
2018-04-17T07:03:45.336Z,7.94
2018-04-17T07:04:45.207Z,8.03
2018-04-17T07:05:45.086Z,8.14
2018-04-17T07:06:44.958Z,8.11
2018-04-17T07:07:44.829Z,8.12
2018-04-17T07:08:44.708Z,8.17
2018-04-17T07:09:44.579Z,8.28
2018-04-17T07:10:44.454Z,8.39
2018-04-17T07:11:44.368Z,8.36
2018-04-17T07:12:44.201Z,8.36
2018-04-17T07:13:44.077Z,8.44
2018-04-17T07:14:43.949Z,8.44
2018-04-17T07:15:43.825Z,8.58
2018-04-17T07:16:43.702Z,8.55
2018-04-17T07:17:43.574Z,8.60
2018-04-17T07:18:43.451Z,8.62
2018-04-17T07:19:43.323Z,8.69
2018-04-17T07:20:43.204Z,8.72
2018-04-17T07:21:43.072Z,8.71
2018-04-17T07:22:42.947Z,8.65
2018-04-17T07:23:42.829Z,8.62
2018-04-17T07:24:42.696Z,8.58
2018-04-17T07:25:42.573Z,8.66
2018-04-17T07:26:42.443Z,8.68
2018-04-17T07:27:42.319Z,8.68
2018-04-17T07:28:42.198Z,8.81
2018-04-17T07:29:42.066Z,8.75
2018-04-17T07:30:41.943Z,8.86
2018-04-17T07:31:41.815Z,8.97
2018-04-17T07:32:41.692Z,9.01
2018-04-17T07:33:41.566Z,9.04
2018-04-17T07:34:41.490Z,9.04
2018-04-17T07:35:41.317Z,9.06
2018-04-17T07:36:41.190Z,9.06
2018-04-17T07:37:41.066Z,9.18
2018-04-17T07:38:40.939Z,9.02
2018-04-17T07:39:40.814Z,9.05
2018-04-17T07:40:40.688Z,9.12
2018-04-17T07:41:40.565Z,9.10
2018-04-17T07:42:40.441Z,9.13
2018-04-17T07:43:40.314Z,9.25
2018-04-17T07:44:40.188Z,9.30
2018-04-17T07:45:40.066Z,9.40
2018-04-17T07:46:39.936Z,9.40
2018-04-17T07:47:39.813Z,9.39
2018-04-17T07:48:39.689Z,9.45
2018-04-17T07:49:39.561Z,9.43
2018-04-17T07:50:39.444Z,9.64
2018-04-17T07:51:39.312Z,9.64
2018-04-17T07:52:39.187Z,9.70
2018-04-17T07:53:39.063Z,9.70
2018-04-17T07:54:38.938Z,9.82
2018-04-17T07:55:38.814Z,9.88
2018-04-17T07:56:38.688Z,9.83
2018-04-17T07:57:38.563Z,9.86
2018-04-17T07:58:38.440Z,10.06
2018-04-17T07:59:38.315Z,10.06
2018-04-17T08:00:38.190Z,10.03
2018-04-17T08:01:38.068Z,9.96
2018-04-17T08:02:37.947Z,10.15
2018-04-17T08:03:37.814Z,10.21
2018-04-17T08:04:37.689Z,10.21
2018-04-17T08:05:37.569Z,10.28
2018-04-17T08:06:37.446Z,10.46
2018-04-17T08:07:37.319Z,10.62
2018-04-17T08:08:37.196Z,10.99
2018-04-17T08:09:37.069Z,11.02
2018-04-17T08:10:36.949Z,11.09
2018-04-17T08:11:36.821Z,11.13
2018-04-17T08:12:36.700Z,11.47
2018-04-17T08:13:36.576Z,11.72
2018-04-17T08:14:36.453Z,12.11
2018-04-17T08:15:36.328Z,12.45
2018-04-17T08:16:36.208Z,12.62
2018-04-17T08:17:36.095Z,12.67
2018-04-17T08:18:35.961Z,12.64
2018-04-17T08:19:35.842Z,12.63
2018-04-17T08:20:35.714Z,12.49
2018-04-17T08:21:35.592Z,12.48
2018-04-17T08:22:35.470Z,12.66
2018-04-17T08:23:35.345Z,12.57
2018-04-17T08:24:35.223Z,12.59
2018-04-17T08:25:35.117Z,12.77
2018-04-17T08:26:34.979Z,12.88
2018-04-17T08:27:34.860Z,12.97
2018-04-17T08:28:34.738Z,13.12
2018-04-17T08:29:34.614Z,13.43
2018-04-17T08:30:34.491Z,13.47
2018-04-17T08:31:34.371Z,13.29
2018-04-17T08:32:34.256Z,13.30
2018-04-17T08:33:34.125Z,13.15
2018-04-17T08:34:34.007Z,13.14
2018-04-17T08:35:33.885Z,13.37
2018-04-17T08:36:33.764Z,13.59
2018-04-17T08:37:33.642Z,13.69
2018-04-17T08:38:33.517Z,13.29
2018-04-17T08:39:33.397Z,13.38
2018-04-17T08:40:33.277Z,13.49
2018-04-17T08:41:33.156Z,13.47
2018-04-17T08:42:33.035Z,13.52
2018-04-17T08:43:32.918Z,13.51
2018-04-17T08:44:32.792Z,13.46
2018-04-17T08:45:32.671Z,13.65
2018-04-17T08:46:32.550Z,13.80
2018-04-17T08:47:32.427Z,13.61
2018-04-17T08:48:32.303Z,13.69
2018-04-17T08:49:32.185Z,13.80
2018-04-17T08:50:32.064Z,13.92
2018-04-17T08:51:31.942Z,14.02
2018-04-17T08:52:31.819Z,13.80
2018-04-17T08:53:31.700Z,13.92
2018-04-17T08:54:31.612Z,14.04
2018-04-17T08:55:31.459Z,14.17
2018-04-17T08:56:31.373Z,14.37
2018-04-17T08:57:31.216Z,14.39
2018-04-17T08:58:31.096Z,14.52
2018-04-17T08:59:30.976Z,14.56
2018-04-17T09:00:30.852Z,14.46
2018-04-17T09:01:30.732Z,14.35
2018-04-17T09:02:30.613Z,14.12
2018-04-17T09:03:30.496Z,14.29
2018-04-17T09:04:30.369Z,14.46
2018-04-17T09:05:30.248Z,14.37
2018-04-17T09:06:30.129Z,14.37
2018-04-17T09:07:30.009Z,14.64
2018-04-17T09:08:29.887Z,15.08
2018-04-17T09:09:29.767Z,15.08
2018-04-17T09:10:29.646Z,15.05
2018-04-17T09:11:29.528Z,15.06
2018-04-17T09:12:29.405Z,15.13
2018-04-17T09:13:29.282Z,15.28
2018-04-17T09:14:29.167Z,15.38
2018-04-17T09:15:29.043Z,15.45
2018-04-17T09:16:28.923Z,15.45
2018-04-17T09:17:28.804Z,15.46
2018-04-17T09:18:28.688Z,15.64
2018-04-17T09:19:28.564Z,15.27
2018-04-17T09:20:28.442Z,15.08
2018-04-17T09:21:28.322Z,14.75
2018-04-17T09:22:28.206Z,14.98
2018-04-17T09:23:28.084Z,15.02
2018-04-17T09:24:27.966Z,15.31
2018-04-17T09:25:27.845Z,15.27
2018-04-17T09:26:27.726Z,15.38
2018-04-17T09:27:27.640Z,14.75
2018-04-17T09:28:27.491Z,14.20
2018-04-17T09:29:27.369Z,14.19
2018-04-17T09:30:27.245Z,14.67
2018-04-17T09:31:27.125Z,14.83
2018-04-17T09:32:27.006Z,14.98
2018-04-17T09:33:26.884Z,15.27
2018-04-17T09:34:26.820Z,15.60
2018-04-17T09:35:26.645Z,15.57
2018-04-17T09:36:26.527Z,15.42
2018-04-17T09:37:26.406Z,15.46
2018-04-17T09:38:26.286Z,15.38
2018-04-17T09:39:26.167Z,15.57
2018-04-17T09:40:26.046Z,15.89
2018-04-17T09:41:25.927Z,16.09
2018-04-17T09:42:25.826Z,15.94
2018-04-17T09:43:25.689Z,15.79
2018-04-17T09:44:25.567Z,15.81
2018-04-17T09:45:25.448Z,16.00
2018-04-17T09:46:25.329Z,15.72
2018-04-17T09:47:25.209Z,15.81
2018-04-17T09:48:25.090Z,16.18
2018-04-17T09:49:24.972Z,16.15
2018-04-17T09:50:24.859Z,16.09
2018-04-17T09:51:24.727Z,15.94
2018-04-17T09:52:24.610Z,16.44
2018-04-17T09:53:24.488Z,16.58
2018-04-17T09:54:24.369Z,16.34
2018-04-17T09:55:24.251Z,16.53
2018-04-17T09:56:24.131Z,16.55
2018-04-17T09:57:24.013Z,16.70
2018-04-17T09:58:23.897Z,17.13
2018-04-17T09:59:23.774Z,16.77
2018-04-17T10:00:23.656Z,16.65
2018-04-17T10:01:23.538Z,16.80
2018-04-17T10:02:23.415Z,16.92
2018-04-17T10:03:23.297Z,16.88
2018-04-17T10:04:23.180Z,17.15
2018-04-17T10:05:23.060Z,16.99
2018-04-17T10:06:22.938Z,16.70
2018-04-17T10:07:22.824Z,16.75
2018-04-17T10:08:22.705Z,16.74
2018-04-17T10:09:22.584Z,16.83
2018-04-17T10:10:22.465Z,16.85
2018-04-17T10:11:22.347Z,17.00
2018-04-17T10:12:22.227Z,16.88
2018-04-17T10:13:22.110Z,16.85
2018-04-17T10:14:21.991Z,16.81
2018-04-17T10:15:21.874Z,16.81
2018-04-17T10:16:21.752Z,16.71
2018-04-17T10:17:21.653Z,16.52
2018-04-17T10:18:21.516Z,16.70
2018-04-17T10:19:21.397Z,16.86
2018-04-17T10:20:21.277Z,15.67
2018-04-17T10:21:21.160Z,15.68
2018-04-17T10:22:21.041Z,16.16
2018-04-17T10:23:20.921Z,16.45
2018-04-17T10:24:20.803Z,16.45
2018-04-17T10:25:20.688Z,16.50
2018-04-17T10:26:20.568Z,16.58
2018-04-17T10:27:20.451Z,16.88
2018-04-17T10:28:20.332Z,17.00
2018-04-17T10:29:20.211Z,17.26
2018-04-17T10:30:20.155Z,17.55
2018-04-17T10:31:19.975Z,17.55
2018-04-17T10:32:19.864Z,17.81
2018-04-17T10:33:19.740Z,17.74
2018-04-17T10:34:19.623Z,17.53
2018-04-17T10:35:19.505Z,17.53
2018-04-17T10:36:19.385Z,17.54
2018-04-17T10:37:19.267Z,17.41
2018-04-17T10:38:19.150Z,17.40
2018-04-17T10:39:19.030Z,17.33
2018-04-17T10:40:18.912Z,17.62
2018-04-17T10:41:18.795Z,17.89
2018-04-17T10:42:18.679Z,18.24
2018-04-17T10:43:18.562Z,18.55
2018-04-17T10:44:18.443Z,18.39
2018-04-17T10:45:18.333Z,18.47
2018-04-17T10:46:18.206Z,18.17
2018-04-17T10:47:18.090Z,18.44
2018-04-17T10:48:17.972Z,18.64
2018-04-17T10:49:17.857Z,18.97
2018-04-17T10:50:17.738Z,19.24
2018-04-17T10:51:17.626Z,18.61
2018-04-17T10:52:17.506Z,18.77
2018-04-17T10:53:17.388Z,18.97
2018-04-17T10:54:17.270Z,19.24
2018-04-17T10:55:17.153Z,18.82
2018-04-17T10:56:17.035Z,18.91
2018-04-17T10:57:16.919Z,19.15
2018-04-17T10:58:16.805Z,18.82
2018-04-17T10:59:16.685Z,18.27
2018-04-17T11:00:16.570Z,18.29
2018-04-17T11:01:16.504Z,18.59
2018-04-17T11:02:16.336Z,18.94
2018-04-17T11:03:16.274Z,18.44
2018-04-17T11:04:16.102Z,18.70
2018-04-17T11:05:15.984Z,18.50
2018-04-17T11:06:15.868Z,18.15
2018-04-17T11:07:15.751Z,17.74
2018-04-17T11:08:15.636Z,18.47
2018-04-17T11:09:15.517Z,17.97
2018-04-17T11:10:15.404Z,17.67
2018-04-17T11:11:15.281Z,17.69
2018-04-17T11:12:15.170Z,17.69
2018-04-17T11:13:15.050Z,17.54
2018-04-17T11:14:14.931Z,17.06
2018-04-17T11:15:14.813Z,16.86
2018-04-17T11:16:14.721Z,16.73
2018-04-17T11:17:14.578Z,16.49
2018-04-17T11:18:14.460Z,16.52
2018-04-17T11:19:14.344Z,16.40
2018-04-17T11:20:14.225Z,16.31
2018-04-17T11:21:14.106Z,15.92
2018-04-17T11:22:13.990Z,16.07
2018-04-17T11:23:13.895Z,16.06
2018-04-17T11:24:13.750Z,16.00
2018-04-17T11:25:13.632Z,16.09
2018-04-17T11:26:13.513Z,15.97
2018-04-17T11:27:13.396Z,15.85
2018-04-17T11:28:13.274Z,16.00
2018-04-17T11:29:13.155Z,16.22
2018-04-17T11:30:13.038Z,16.37
2018-04-17T11:31:12.917Z,16.81
2018-04-17T11:32:12.798Z,16.85
2018-04-17T11:33:12.680Z,16.77
2018-04-17T11:34:12.561Z,16.74
2018-04-17T11:35:12.443Z,17.33
2018-04-17T11:36:12.330Z,17.88
2018-04-17T11:37:12.208Z,18.13
2018-04-17T11:38:12.086Z,17.54
2018-04-17T11:39:11.970Z,17.35
2018-04-17T11:40:11.848Z,17.44
2018-04-17T11:41:11.730Z,17.73
2018-04-17T11:42:11.612Z,18.12
2018-04-17T11:43:11.530Z,17.82
2018-04-17T11:44:11.391Z,18.09
2018-04-17T11:45:11.260Z,18.04
2018-04-17T11:46:11.141Z,17.82
2018-04-17T11:47:11.864Z,17.57
2018-04-17T11:48:10.901Z,17.14
2018-04-17T11:49:10.786Z,17.20
2018-04-17T11:50:10.668Z,17.17
2018-04-17T11:51:10.548Z,17.10
2018-04-17T11:52:10.429Z,17.04
2018-04-17T11:53:10.311Z,16.78
2018-04-17T11:54:10.192Z,16.75
2018-04-17T11:55:10.074Z,16.58
2018-04-17T11:56:10.121Z,15.89
2018-04-17T11:57:09.838Z,15.51
2018-04-17T11:58:09.719Z,15.66
2018-04-17T11:59:09.598Z,16.14
2018-04-17T12:00:09.481Z,16.86
2018-04-17T12:01:09.361Z,17.64
2018-04-17T12:02:09.270Z,18.00
2018-04-17T12:03:09.122Z,17.35
2018-04-17T12:04:09.005Z,17.54
2018-04-17T12:05:08.921Z,18.17
2018-04-17T12:06:08.773Z,18.13
2018-04-17T12:07:08.651Z,17.81
2018-04-17T12:08:08.637Z,18.00
2018-04-17T12:09:08.417Z,18.03
2018-04-17T12:10:08.298Z,18.12
2018-04-17T12:11:08.178Z,17.97
2018-04-17T12:12:08.061Z,17.89
2018-04-17T12:13:07.942Z,17.94
2018-04-17T12:14:07.823Z,17.88
2018-04-17T12:15:07.704Z,17.79
2018-04-17T12:16:07.586Z,17.76
2018-04-17T12:17:07.471Z,17.89
2018-04-17T12:18:07.351Z,17.59
2018-04-17T12:19:07.233Z,17.54
2018-04-17T12:20:07.114Z,17.32
2018-04-17T12:21:06.996Z,17.25
2018-04-17T12:22:06.882Z,17.00
2018-04-17T12:23:06.764Z,16.95
2018-04-17T12:24:06.641Z,16.89
2018-04-17T12:25:06.530Z,16.65
2018-04-17T12:26:06.406Z,16.68
2018-04-17T12:27:06.290Z,16.75
2018-04-17T12:28:06.170Z,16.73
2018-04-17T12:29:06.048Z,16.74
2018-04-17T12:30:05.932Z,16.60
2018-04-17T12:31:05.813Z,16.52
2018-04-17T12:32:05.691Z,16.35
2018-04-17T12:33:05.573Z,16.40
2018-04-17T12:34:05.455Z,16.20
2018-04-17T12:35:05.334Z,16.31
2018-04-17T12:36:05.217Z,16.31
2018-04-17T12:37:05.103Z,16.35
2018-04-17T12:38:04.996Z,16.12
2018-04-17T12:39:04.883Z,16.22
2018-04-17T12:40:04.740Z,16.18
2018-04-17T12:41:04.621Z,16.30
2018-04-17T12:42:04.503Z,16.26
2018-04-17T12:43:04.381Z,16.31
2018-04-17T12:44:04.263Z,16.37
2018-04-17T12:45:04.957Z,16.40
2018-04-17T12:46:04.028Z,16.59
2018-04-17T12:47:03.907Z,16.71
2018-04-17T12:48:03.788Z,16.49
2018-04-17T12:49:03.703Z,16.93
2018-04-17T12:50:03.553Z,18.36
2018-04-17T12:51:03.432Z,19.17
2018-04-17T12:52:03.312Z,18.72
2018-04-17T12:53:03.193Z,19.95
2018-04-17T12:54:03.075Z,20.53
2018-04-17T12:55:02.957Z,21.48
2018-04-17T12:56:02.838Z,21.60
2018-04-17T12:57:02.720Z,21.88
2018-04-17T12:58:02.604Z,21.23
2018-04-17T12:59:02.486Z,20.41
2018-04-17T13:00:02.371Z,19.91
2018-04-17T13:01:02.260Z,19.28
2018-04-17T13:02:02.143Z,18.31
2018-04-17T13:03:02.015Z,17.53
2018-04-17T13:04:01.903Z,17.69
2018-04-17T13:05:01.786Z,17.74
2018-04-17T13:06:01.668Z,17.67
2018-04-17T13:07:01.554Z,17.64